Green Honduras — C6WH8 — position and weather

sailwx.info

Track history (hours):
 
Tides and Currents Weather Stations Pressure Air Temp Water Temp Dewpoint Dewpoint Depression Visibility Wind Speed Wind Dir Waves Ship Positions

Green Honduras

Last reported at 2018-May-24 20:28 UTC. Time now 2018-Jun-21 08:43 UTC.
Position N 27°42' W 015°20'.
Warning: this ship's position is 27 days out of date.

Length 131 m; draft 9.5 m.

Type: Cargo ship. MMSI: 311289000.

Date/timePositionNaut miles runAvg speedWind from/ knotsBaromVisibWave heightAir tempDewpointWater temp
2018-May-24 20:28N 27°42' W 015°20'714.3
2018-May-24 20:00N 27°48' W 015°17'714.7
2018-May-24 19:30N 27°55' W 015°14'714.3
2018-May-24 19:00N 28°01' W 015°17'714.7
2018-May-24 18:30N 28°07' W 015°22'3 5.2
2018-May-24 18:00N 28°09' W 015°24'0 0.0
2018-May-24 17:30N 28°09' W 015°24'0 0.0
2018-May-24 17:00N 28°09' W 015°24'0 0.0
2018-May-24 16:28N 28°09' W 015°24'0 0.0
2018-May-24 16:00N 28°09' W 015°24'0 0.0
2018-May-24 15:30N 28°09' W 015°24'0 0.0
2018-May-24 15:00N 28°09' W 015°24'0 0.0
2018-May-24 14:30N 28°09' W 015°24'0 0.0
2018-May-24 14:00N 28°09' W 015°24'0 0.0
2018-May-24 13:30N 28°09' W 015°24'5 1.1
2018-May-24 09:00N 28°14' W 015°21'713.8
2018-May-24 08:30N 28°20' W 015°19'714.1
2018-May-24 08:00N 28°27' W 015°16'714.2
2018-May-24 07:30N 28°34' W 015°14'714.1
2018-May-24 07:00N 28°40' W 015°12'714.2
2018-May-24 06:30N 28°47' W 015°09'  
2018-May-20 12:58N 47°27' W 006°58'1414.4
2018-May-20 11:59N 47°40' W 006°48'1514.5
2018-May-20 10:58N 47°53' W 006°37'1514.1
2018-May-20 09:53N 48°06' W 006°26'1213.6
2018-May-20 08:58N 48°17' W 006°18'1512.8
2018-May-20 07:48N 48°31' W 006°08'1111.8
2018-May-20 06:53N 48°40' W 006°01'711.7
2018-May-20 06:16N 48°47' W 005°55'311.7
2018-May-20 06:00N 48°50' W 005°53'611.7
2018-May-20 05:30N 48°54' W 005°48'612.1
2018-May-20 05:00N 48°57' W 005°40'612.7
2018-May-20 04:30N 49°01' W 005°32'713.1
2018-May-20 04:00N 49°04' W 005°23'713.5
2018-May-20 03:30N 49°07' W 005°14'713.9
2018-May-20 03:01N 49°11' W 005°06'612.5
2018-May-20 02:30N 49°14' W 004°57'713.9
2018-May-20 02:00N 49°18' W 004°48'2314.6
2018-May-20 00:26N 49°29' W 004°17'913.9
2018-May-19 23:47N 49°33' W 004°05'813.3
2018-May-19 23:10N 49°37' W 003°54'212.7
2018-May-19 23:00N 49°39' W 003°52'612.4
2018-May-19 22:30N 49°41' W 003°43'612.0
2018-May-19 22:00N 49°44' W 003°35'611.6
2018-May-19 21:30N 49°47' W 003°27'611.5
2018-May-19 21:00N 49°50' W 003°19'611.6
2018-May-19 20:26N 49°53' W 003°10'512.0
2018-May-19 20:00N 49°56' W 003°03'612.6
2018-May-19 19:30N 49°59' W 002°55'713.1
2018-May-19 19:00N 50°01' W 002°45'714.0
2018-May-19 18:28N 50°03' W 002°34'714.8
2018-May-19 18:01N 50°05' W 002°24'815.7
2018-May-19 17:31N 50°07' W 002°12'816.4
2018-May-19 17:01N 50°09' W 001°60'816.7
2018-May-19 16:31N 50°11' W 001°47'816.5
2018-May-19 16:00N 50°14' W 001°35'816.1
2018-May-19 15:31N 50°16' W 001°23'815.4
2018-May-19 14:59N 50°18' W 001°10'714.5
2018-May-19 14:31N 50°20' W 000°60'1212.8
2018-May-19 13:34N 50°23' W 000°42'111.7
2018-May-19 13:30N 50°23' W 000°41'611.6
2018-May-19 12:58N 50°25' W 000°31'511.3
2018-May-19 12:30N 50°26' W 000°23'611.0
2018-May-19 11:59N 50°28' W 000°15'510.9
2018-May-19 11:30N 50°30' W 000°07'510.8
2018-May-19 11:00N 50°31' E 000°01'611.1
2018-May-19 10:30N 50°33' E 000°10'611.5
2018-May-19 09:57N 50°34' E 000°19'612.3
2018-May-19 09:27N 50°36' E 000°29'613.3
2018-May-19 09:00N 50°38' E 000°37'714.0
2018-May-19 08:31N 50°41' E 000°47'714.6
2018-May-19 08:01N 50°46' E 000°56'1814.5
2018-May-19 06:44N 50°58' E 001°17'413.9
2018-May-19 06:27N 51°01' E 001°22'713.2
2018-May-19 05:56N 51°05' E 001°31'512.1
2018-May-19 05:31N 51°09' E 001°37'611.4
2018-May-19 05:00N 51°12' E 001°44'611.1
2018-May-19 04:30N 51°17' E 001°49'510.8
2018-May-19 04:01N 51°22' E 001°53'510.9
2018-May-19 03:30N 51°26' E 001°58'611.1
2018-May-19 03:00N 51°31' E 002°04'611.6
2018-May-19 02:30N 51°35' E 002°10'812.1
2018-May-19 01:49N 51°41' E 002°19'412.7
2018-May-19 01:30N 51°44' E 002°23'713.3
2018-May-19 00:59N 51°49' E 002°30'914.2
2018-May-19 00:23N 51°56' E 002°39'614.2
2018-May-18 23:59N 52°00' E 002°45'914.6
2018-May-18 23:22N 52°07' E 002°55'514.8
2018-May-18 23:00N 52°11' E 003°00'714.7
2018-May-18 22:30N 52°17' E 003°08'3 3.2
2018-May-18 21:39N 52°19' E 003°11'2 8.4
2018-May-18 21:27N 52°20' E 003°13'813.4
2018-May-18 20:50N 52°26' E 003°21'512.8
2018-May-18 20:28N 52°28' E 003°29'5 9.9
2018-May-18 20:00N 52°29' E 003°36'3 5.6
2018-May-18 19:29N 52°30' E 003°41'3 5.6
2018-May-18 18:59N 52°31' E 003°45'3 6.5
2018-May-18 18:30N 52°31' E 003°50'3 6.3
2018-May-18 18:00N 52°31' E 003°55'3 6.2
2018-May-18 17:30N 52°31' E 004°00'5 9.3
2018-May-18 17:00N 52°31' E 004°08'611.1
2018-May-18 16:31N 52°31' E 004°17'612.3
2018-May-18 16:00N 52°29' E 004°27'5 9.7
2018-May-18 15:30N 52°28' E 004°34'0 0.7
2018-May-18 14:59N 52°28' E 004°35'0 0.0
2018-May-18 13:56N 52°28' E 004°35'0 0.0
2018-May-18 13:29N 52°28' E 004°35'0 0.0
2018-May-18 13:00N 52°28' E 004°35'0 0.0
2018-May-18 12:30N 52°28' E 004°35'0 0.0
2018-May-18 11:58N 52°28' E 004°35'0 0.0
2018-May-18 11:28N 52°28' E 004°35'0 0.0
2018-May-18 10:58N 52°28' E 004°35'0 0.0
2018-May-18 10:28N 52°28' E 004°35'0 0.0
2018-May-18 10:01N 52°28' E 004°35'0 0.0
2018-May-18 09:28N 52°28' E 004°35'0 0.0
2018-May-18 09:01N 52°28' E 004°35'0 0.0
2018-May-18 08:28N 52°28' E 004°35'0 0.0
2018-May-18 08:01N 52°28' E 004°35'0 0.0
2018-May-18 07:28N 52°28' E 004°35'0 0.0
2018-May-18 06:58N 52°28' E 004°35'0 0.0
2018-May-18 06:28N 52°28' E 004°35'0 0.0
2018-May-18 06:01N 52°28' E 004°35'0 0.0
2018-May-18 05:28N 52°28' E 004°35'0 0.0
2018-May-18 05:01N 52°28' E 004°35'0 0.0
2018-May-18 04:28N 52°28' E 004°35'0 0.0
2018-May-18 04:00N 52°28' E 004°35'0 0.0
2018-May-18 03:30N 52°28' E 004°35'0 0.0
2018-May-18 03:00N 52°28' E 004°35'0 0.0
2018-May-18 02:27N 52°28' E 004°35'0 0.0
2018-May-18 02:00N 52°28' E 004°35'0 0.0
2018-May-18 01:30N 52°28' E 004°35'0 0.0
2018-May-18 01:00N 52°28' E 004°35'0 0.0
2018-May-18 00:30N 52°28' E 004°35'0 0.0
2018-May-18 00:00N 52°28' E 004°35'0 0.0
2018-May-17 23:27N 52°28' E 004°35'0 0.0
2018-May-17 23:00N 52°28' E 004°35'0 0.0
2018-May-17 22:30N 52°28' E 004°35'0 0.0
2018-May-17 22:00N 52°28' E 004°35'0 0.0
2018-May-17 21:30N 52°28' E 004°35'0 0.0
2018-May-17 21:00N 52°28' E 004°35'0 0.0
2018-May-17 20:29N 52°28' E 004°35'0 0.0
2018-May-17 19:56N 52°28' E 004°35'0 0.0
2018-May-17 19:29N 52°28' E 004°35'0 0.0
2018-May-17 18:59N 52°28' E 004°35'0 0.0
2018-May-17 18:29N 52°28' E 004°35'0 0.0
2018-May-17 17:59N 52°28' E 004°35'0 0.0
2018-May-17 17:29N 52°28' E 004°35'0 0.0
2018-May-17 16:59N 52°28' E 004°35'0 0.0
2018-May-17 16:29N 52°28' E 004°35'0 0.0
2018-May-17 15:59N 52°28' E 004°35'0 0.0
2018-May-17 15:29N 52°28' E 004°35'0 0.0
2018-May-17 14:58N 52°28' E 004°35'0 0.0
2018-May-17 14:28N 52°28' E 004°35'0 0.0
2018-May-17 13:58N 52°28' E 004°35'0 0.0
2018-May-17 13:28N 52°28' E 004°35'0 0.0
2018-May-17 12:58N 52°28' E 004°35'0 0.0
2018-May-17 12:28N 52°28' E 004°35'0 0.0
2018-May-17 11:58N 52°28' E 004°35'0 0.0
2018-May-17 11:28N 52°28' E 004°35'0 0.0
2018-May-17 10:58N 52°28' E 004°35'0 0.0
2018-May-17 10:28N 52°28' E 004°35'0 0.0
2018-May-17 09:52N 52°28' E 004°35'0 0.0
2018-May-17 09:28N 52°28' E 004°35'0 0.0
2018-May-17 08:58N 52°28' E 004°35'0 0.0
2018-May-17 08:28N 52°28' E 004°35'0 0.0
2018-May-17 07:52N 52°28' E 004°35'0 0.0
2018-May-17 07:28N 52°28' E 004°35'0 0.0
2018-May-17 06:59N 52°28' E 004°35'0 0.0
2018-May-17 06:29N 52°28' E 004°35'0 0.0
2018-May-17 05:56N 52°28' E 004°35'0 0.0
2018-May-17 05:29N 52°28' E 004°35'0 0.0
2018-May-17 04:59N 52°28' E 004°35'0 0.0
2018-May-17 04:29N 52°28' E 004°35'0 0.0
2018-May-17 03:59N 52°28' E 004°35'0 0.0
2018-May-17 03:29N 52°28' E 004°35'0 0.0
2018-May-17 02:56N 52°28' E 004°35'0 0.0
2018-May-17 02:29N 52°28' E 004°35'0 0.0
2018-May-17 01:56N 52°28' E 004°35'0 0.0
2018-May-17 01:29N 52°28' E 004°35'0 0.0
2018-May-17 00:59N 52°28' E 004°35'0 0.0
2018-May-17 00:29N 52°28' E 004°35'0 0.0
2018-May-16 23:59N 52°28' E 004°35'0 0.0
2018-May-16 23:29N 52°28' E 004°35'0 0.0
2018-May-16 22:59N 52°28' E 004°35'0 0.0
2018-May-16 22:29N 52°28' E 004°35'0 0.0
2018-May-16 21:59N 52°28' E 004°35'0 0.0
2018-May-16 21:29N 52°28' E 004°35'0 0.0
2018-May-16 21:00N 52°28' E 004°35'0 0.0
2018-May-16 20:29N 52°28' E 004°35'0 0.0
2018-May-16 19:50N 52°28' E 004°35'0 0.0
2018-May-16 19:29N 52°28' E 004°35'0 0.0
2018-May-16 18:59N 52°28' E 004°35'0 0.0
2018-May-16 17:59N 52°28' E 004°35'0 0.0
2018-May-16 17:29N 52°28' E 004°35'0 0.0
2018-May-16 16:59N 52°28' E 004°35'0 0.0
2018-May-16 16:29N 52°28' E 004°35'0 0.0
2018-May-16 15:59N 52°28' E 004°35'0 0.0
2018-May-16 15:29N 52°28' E 004°35'0 0.0
2018-May-16 14:59N 52°28' E 004°35'0 0.0
2018-May-16 14:26N 52°28' E 004°35'0 0.0
2018-May-16 13:59N 52°28' E 004°35'0 0.0
2018-May-16 13:29N 52°28' E 004°35'0 0.0
2018-May-16 13:00N 52°28' E 004°35'0 0.0
2018-May-16 12:30N 52°28' E 004°35'0 0.0
2018-May-16 12:00N 52°28' E 004°35'0 0.0
2018-May-16 11:30N 52°28' E 004°35'0 0.0
2018-May-16 10:57N 52°28' E 004°35'0 0.0
2018-May-16 10:30N 52°28' E 004°35'0 0.0
2018-May-16 10:00N 52°28' E 004°35'0 0.0
2018-May-16 09:27N 52°28' E 004°35'0 0.0
2018-May-16 08:57N 52°28' E 004°35'0 0.0
2018-May-16 08:27N 52°28' E 004°35'0 0.0
2018-May-16 08:00N 52°28' E 004°35'0 0.0
2018-May-16 07:30N 52°28' E 004°35'0 0.0
2018-May-16 06:54N 52°28' E 004°35'0 0.0
2018-May-16 06:15N 52°28' E 004°35'0 0.0
2018-May-16 05:57N 52°28' E 004°35'0 0.0
2018-May-16 05:30N 52°28' E 004°35'0 0.0
2018-May-16 05:00N 52°28' E 004°35'0 0.0
2018-May-16 04:28N 52°28' E 004°35'0 0.0
2018-May-16 03:55N 52°28' E 004°35'0 0.0
2018-May-16 03:28N 52°28' E 004°35'0 0.0
2018-May-16 02:58N 52°28' E 004°35'0 0.0
2018-May-16 02:28N 52°28' E 004°35'0 0.0
2018-May-16 01:58N 52°28' E 004°35'0 0.0
2018-May-16 01:28N 52°28' E 004°35'0 0.0
2018-May-16 00:58N 52°28' E 004°35'0 0.0
2018-May-16 00:28N 52°28' E 004°35'0 0.0
2018-May-15 23:58N 52°28' E 004°35'0 0.0
2018-May-15 23:28N 52°28' E 004°35'0 0.0
2018-May-15 22:58N 52°28' E 004°35'0 0.0
2018-May-15 22:28N 52°28' E 004°35'0 0.0
2018-May-15 21:55N 52°28' E 004°35'0 0.0
2018-May-15 21:29N 52°28' E 004°35'0 0.0
2018-May-15 20:59N 52°28' E 004°35'0 0.0
2018-May-15 20:24N 52°28' E 004°35'0 0.0
2018-May-15 20:00N 52°28' E 004°35'0 0.0
2018-May-15 19:30N 52°28' E 004°35'0 0.0
2018-May-15 18:57N 52°28' E 004°35'0 0.0
2018-May-15 18:27N 52°28' E 004°35'0 0.0
2018-May-15 17:57N 52°28' E 004°35'0 0.0
2018-May-15 17:30N 52°28' E 004°35'0 0.0
2018-May-15 17:00N 52°28' E 004°35'0 0.0
2018-May-15 16:27N 52°28' E 004°35'0 0.0
2018-May-15 16:00N 52°28' E 004°35'0 0.0
2018-May-15 15:24N 52°28' E 004°35'0 0.0
2018-May-15 15:00N 52°28' E 004°35'0 0.0
2018-May-15 14:30N 52°28' E 004°35'0 0.0
2018-May-15 14:00N 52°28' E 004°35'0 0.0
2018-May-15 13:27N 52°28' E 004°35'0 0.0
2018-May-15 13:00N 52°28' E 004°35'0 0.0
2018-May-15 12:27N 52°28' E 004°35'0 0.0
2018-May-15 12:00N 52°28' E 004°35'0 0.0
2018-May-15 11:30N 52°28' E 004°35'0 0.0
2018-May-15 11:00N 52°28' E 004°35'0 0.0
2018-May-15 10:27N 52°28' E 004°35'0 0.0
2018-May-15 10:00N 52°28' E 004°35'0 0.0
2018-May-15 09:27N 52°28' E 004°35'0 0.0
2018-May-15 09:00N 52°28' E 004°35'0 0.0
2018-May-15 08:27N 52°28' E 004°35'0 0.0
2018-May-15 08:00N 52°28' E 004°35'0 0.0
2018-May-15 07:30N 52°28' E 004°35'0 0.0
2018-May-15 07:00N 52°28' E 004°35'0 0.0
2018-May-15 06:27N 52°28' E 004°35'0 0.0
2018-May-15 06:00N 52°28' E 004°35'0 0.0
2018-May-15 05:30N 52°28' E 004°35'0 0.0
2018-May-15 05:00N 52°28' E 004°35'0 0.0
2018-May-15 04:25N 52°28' E 004°35'0 0.0
2018-May-15 03:58N 52°28' E 004°35'0 0.0
2018-May-15 03:28N 52°28' E 004°35'0 0.0
2018-May-15 02:55N 52°28' E 004°35'0 0.0
2018-May-15 02:28N 52°28' E 004°35'0 0.0
2018-May-15 01:58N 52°28' E 004°35'0 0.0
2018-May-15 01:25N 52°28' E 004°35'0 0.0
2018-May-15 00:58N 52°28' E 004°35'0 0.0
2018-May-15 00:25N 52°28' E 004°35'0 0.0
2018-May-14 23:58N 52°28' E 004°35'0 0.0
2018-May-14 23:28N 52°28' E 004°35'0 0.0
2018-May-14 22:58N 52°28' E 004°35'0 0.0
2018-May-14 22:28N 52°28' E 004°35'0 0.0
2018-May-14 21:55N 52°28' E 004°35'0 0.0
2018-May-14 21:28N 52°28' E 004°35'0 0.0
2018-May-14 21:00N 52°28' E 004°35'0 0.0
2018-May-14 20:29N 52°28' E 004°35'  
Track history (hours):
 
Tides and Currents Weather Stations Pressure Air Temp Water Temp Dewpoint Dewpoint Depression Visibility Wind Speed Wind Dir Waves Ship Positions

Green Honduras

Last reported at 2018-May-24 20:28 UTC. Time now 2018-Jun-21 08:43 UTC.
Position N 27°42' W 015°20'.
Warning: this ship's position is 27 days out of date.

Length 131 m; draft 9.5 m.

Type: Cargo ship. MMSI: 311289000.

Date/timePositionNaut miles runAvg speedWind from/ knotsBaromVisibWave heightAir tempDewpointWater temp
2018-May-24 20:28N 27°42' W 015°20'714.3
2018-May-24 20:00N 27°48' W 015°17'714.7
2018-May-24 19:30N 27°55' W 015°14'714.3
2018-May-24 19:00N 28°01' W 015°17'714.7
2018-May-24 18:30N 28°07' W 015°22'3 5.2
2018-May-24 18:00N 28°09' W 015°24'0 0.0
2018-May-24 17:30N 28°09' W 015°24'0 0.0
2018-May-24 17:00N 28°09' W 015°24'0 0.0
2018-May-24 16:28N 28°09' W 015°24'0 0.0
2018-May-24 16:00N 28°09' W 015°24'0 0.0
2018-May-24 15:30N 28°09' W 015°24'0 0.0
2018-May-24 15:00N 28°09' W 015°24'0 0.0
2018-May-24 14:30N 28°09' W 015°24'0 0.0
2018-May-24 14:00N 28°09' W 015°24'0 0.0
2018-May-24 13:30N 28°09' W 015°24'5 1.1
2018-May-24 09:00N 28°14' W 015°21'713.8
2018-May-24 08:30N 28°20' W 015°19'714.1
2018-May-24 08:00N 28°27' W 015°16'714.2
2018-May-24 07:30N 28°34' W 015°14'714.1
2018-May-24 07:00N 28°40' W 015°12'714.2
2018-May-24 06:30N 28°47' W 015°09'  
2018-May-20 12:58N 47°27' W 006°58'1414.4
2018-May-20 11:59N 47°40' W 006°48'1514.5
2018-May-20 10:58N 47°53' W 006°37'1514.1
2018-May-20 09:53N 48°06' W 006°26'1213.6
2018-May-20 08:58N 48°17' W 006°18'1512.8
2018-May-20 07:48N 48°31' W 006°08'1111.8
2018-May-20 06:53N 48°40' W 006°01'711.7
2018-May-20 06:16N 48°47' W 005°55'311.7
2018-May-20 06:00N 48°50' W 005°53'611.7
2018-May-20 05:30N 48°54' W 005°48'612.1
2018-May-20 05:00N 48°57' W 005°40'612.7
2018-May-20 04:30N 49°01' W 005°32'713.1
2018-May-20 04:00N 49°04' W 005°23'713.5
2018-May-20 03:30N 49°07' W 005°14'713.9
2018-May-20 03:01N 49°11' W 005°06'612.5
2018-May-20 02:30N 49°14' W 004°57'713.9
2018-May-20 02:00N 49°18' W 004°48'2314.6
2018-May-20 00:26N 49°29' W 004°17'913.9
2018-May-19 23:47N 49°33' W 004°05'813.3
2018-May-19 23:10N 49°37' W 003°54'212.7
2018-May-19 23:00N 49°39' W 003°52'612.4
2018-May-19 22:30N 49°41' W 003°43'612.0
2018-May-19 22:00N 49°44' W 003°35'611.6
2018-May-19 21:30N 49°47' W 003°27'611.5
2018-May-19 21:00N 49°50' W 003°19'611.6
2018-May-19 20:26N 49°53' W 003°10'512.0
2018-May-19 20:00N 49°56' W 003°03'612.6
2018-May-19 19:30N 49°59' W 002°55'713.1
2018-May-19 19:00N 50°01' W 002°45'714.0
2018-May-19 18:28N 50°03' W 002°34'714.8
2018-May-19 18:01N 50°05' W 002°24'815.7
2018-May-19 17:31N 50°07' W 002°12'816.4
2018-May-19 17:01N 50°09' W 001°60'816.7
2018-May-19 16:31N 50°11' W 001°47'816.5
2018-May-19 16:00N 50°14' W 001°35'816.1
2018-May-19 15:31N 50°16' W 001°23'815.4
2018-May-19 14:59N 50°18' W 001°10'714.5
2018-May-19 14:31N 50°20' W 000°60'1212.8
2018-May-19 13:34N 50°23' W 000°42'111.7
2018-May-19 13:30N 50°23' W 000°41'611.6
2018-May-19 12:58N 50°25' W 000°31'511.3
2018-May-19 12:30N 50°26' W 000°23'611.0
2018-May-19 11:59N 50°28' W 000°15'510.9
2018-May-19 11:30N 50°30' W 000°07'510.8
2018-May-19 11:00N 50°31' E 000°01'611.1
2018-May-19 10:30N 50°33' E 000°10'611.5
2018-May-19 09:57N 50°34' E 000°19'612.3
2018-May-19 09:27N 50°36' E 000°29'613.3
2018-May-19 09:00N 50°38' E 000°37'714.0
2018-May-19 08:31N 50°41' E 000°47'714.6
2018-May-19 08:01N 50°46' E 000°56'1814.5
2018-May-19 06:44N 50°58' E 001°17'413.9
2018-May-19 06:27N 51°01' E 001°22'713.2
2018-May-19 05:56N 51°05' E 001°31'512.1
2018-May-19 05:31N 51°09' E 001°37'611.4
2018-May-19 05:00N 51°12' E 001°44'611.1
2018-May-19 04:30N 51°17' E 001°49'510.8
2018-May-19 04:01N 51°22' E 001°53'510.9
2018-May-19 03:30N 51°26' E 001°58'611.1
2018-May-19 03:00N 51°31' E 002°04'611.6
2018-May-19 02:30N 51°35' E 002°10'812.1
2018-May-19 01:49N 51°41' E 002°19'412.7
2018-May-19 01:30N 51°44' E 002°23'713.3
2018-May-19 00:59N 51°49' E 002°30'914.2
2018-May-19 00:23N 51°56' E 002°39'614.2
2018-May-18 23:59N 52°00' E 002°45'914.6
2018-May-18 23:22N 52°07' E 002°55'514.8
2018-May-18 23:00N 52°11' E 003°00'714.7
2018-May-18 22:30N 52°17' E 003°08'3 3.2
2018-May-18 21:39N 52°19' E 003°11'2 8.4
2018-May-18 21:27N 52°20' E 003°13'813.4
2018-May-18 20:50N 52°26' E 003°21'512.8
2018-May-18 20:28N 52°28' E 003°29'5 9.9
2018-May-18 20:00N 52°29' E 003°36'3 5.6
2018-May-18 19:29N 52°30' E 003°41'3 5.6
2018-May-18 18:59N 52°31' E 003°45'3 6.5
2018-May-18 18:30N 52°31' E 003°50'3 6.3
2018-May-18 18:00N 52°31' E 003°55'3 6.2
2018-May-18 17:30N 52°31' E 004°00'5 9.3
2018-May-18 17:00N 52°31' E 004°08'611.1
2018-May-18 16:31N 52°31' E 004°17'612.3
2018-May-18 16:00N 52°29' E 004°27'5 9.7
2018-May-18 15:30N 52°28' E 004°34'0 0.7
2018-May-18 14:59N 52°28' E 004°35'0 0.0
2018-May-18 13:56N 52°28' E 004°35'0 0.0
2018-May-18 13:29N 52°28' E 004°35'0 0.0
2018-May-18 13:00N 52°28' E 004°35'0 0.0
2018-May-18 12:30N 52°28' E 004°35'0 0.0
2018-May-18 11:58N 52°28' E 004°35'0 0.0
2018-May-18 11:28N 52°28' E 004°35'0 0.0
2018-May-18 10:58N 52°28' E 004°35'0 0.0
2018-May-18 10:28N 52°28' E 004°35'0 0.0
2018-May-18 10:01N 52°28' E 004°35'0 0.0
2018-May-18 09:28N 52°28' E 004°35'0 0.0
2018-May-18 09:01N 52°28' E 004°35'0 0.0
2018-May-18 08:28N 52°28' E 004°35'0 0.0
2018-May-18 08:01N 52°28' E 004°35'0 0.0
2018-May-18 07:28N 52°28' E 004°35'0 0.0
2018-May-18 06:58N 52°28' E 004°35'0 0.0
2018-May-18 06:28N 52°28' E 004°35'0 0.0
2018-May-18 06:01N 52°28' E 004°35'0 0.0
2018-May-18 05:28N 52°28' E 004°35'0 0.0
2018-May-18 05:01N 52°28' E 004°35'0 0.0
2018-May-18 04:28N 52°28' E 004°35'0 0.0
2018-May-18 04:00N 52°28' E 004°35'0 0.0
2018-May-18 03:30N 52°28' E 004°35'0 0.0
2018-May-18 03:00N 52°28' E 004°35'0 0.0
2018-May-18 02:27N 52°28' E 004°35'0 0.0
2018-May-18 02:00N 52°28' E 004°35'0 0.0
2018-May-18 01:30N 52°28' E 004°35'0 0.0
2018-May-18 01:00N 52°28' E 004°35'0 0.0
2018-May-18 00:30N 52°28' E 004°35'0 0.0
2018-May-18 00:00N 52°28' E 004°35'0 0.0
2018-May-17 23:27N 52°28' E 004°35'0 0.0
2018-May-17 23:00N 52°28' E 004°35'0 0.0
2018-May-17 22:30N 52°28' E 004°35'0 0.0
2018-May-17 22:00N 52°28' E 004°35'0 0.0
2018-May-17 21:30N 52°28' E 004°35'0 0.0
2018-May-17 21:00N 52°28' E 004°35'0 0.0
2018-May-17 20:29N 52°28' E 004°35'0 0.0
2018-May-17 19:56N 52°28' E 004°35'0 0.0
2018-May-17 19:29N 52°28' E 004°35'0 0.0
2018-May-17 18:59N 52°28' E 004°35'0 0.0
2018-May-17 18:29N 52°28' E 004°35'0 0.0
2018-May-17 17:59N 52°28' E 004°35'0 0.0
2018-May-17 17:29N 52°28' E 004°35'0 0.0
2018-May-17 16:59N 52°28' E 004°35'0 0.0
2018-May-17 16:29N 52°28' E 004°35'0 0.0
2018-May-17 15:59N 52°28' E 004°35'0 0.0
2018-May-17 15:29N 52°28' E 004°35'0 0.0
2018-May-17 14:58N 52°28' E 004°35'0 0.0
2018-May-17 14:28N 52°28' E 004°35'0 0.0
2018-May-17 13:58N 52°28' E 004°35'0 0.0
2018-May-17 13:28N 52°28' E 004°35'0 0.0
2018-May-17 12:58N 52°28' E 004°35'0 0.0
2018-May-17 12:28N 52°28' E 004°35'0 0.0
2018-May-17 11:58N 52°28' E 004°35'0 0.0
2018-May-17 11:28N 52°28' E 004°35'0 0.0
2018-May-17 10:58N 52°28' E 004°35'0 0.0
2018-May-17 10:28N 52°28' E 004°35'0 0.0
2018-May-17 09:52N 52°28' E 004°35'0 0.0
2018-May-17 09:28N 52°28' E 004°35'0 0.0
2018-May-17 08:58N 52°28' E 004°35'0 0.0
2018-May-17 08:28N 52°28' E 004°35'0 0.0
2018-May-17 07:52N 52°28' E 004°35'0 0.0
2018-May-17 07:28N 52°28' E 004°35'0 0.0
2018-May-17 06:59N 52°28' E 004°35'0 0.0
2018-May-17 06:29N 52°28' E 004°35'0 0.0
2018-May-17 05:56N 52°28' E 004°35'0 0.0
2018-May-17 05:29N 52°28' E 004°35'0 0.0
2018-May-17 04:59N 52°28' E 004°35'0 0.0
2018-May-17 04:29N 52°28' E 004°35'0 0.0
2018-May-17 03:59N 52°28' E 004°35'0 0.0
2018-May-17 03:29N 52°28' E 004°35'0 0.0
2018-May-17 02:56N 52°28' E 004°35'0 0.0
2018-May-17 02:29N 52°28' E 004°35'0 0.0
2018-May-17 01:56N 52°28' E 004°35'0 0.0
2018-May-17 01:29N 52°28' E 004°35'0 0.0
2018-May-17 00:59N 52°28' E 004°35'0 0.0
2018-May-17 00:29N 52°28' E 004°35'0 0.0
2018-May-16 23:59N 52°28' E 004°35'0 0.0
2018-May-16 23:29N 52°28' E 004°35'0 0.0
2018-May-16 22:59N 52°28' E 004°35'0 0.0
2018-May-16 22:29N 52°28' E 004°35'0 0.0
2018-May-16 21:59N 52°28' E 004°35'0 0.0
2018-May-16 21:29N 52°28' E 004°35'0 0.0
2018-May-16 21:00N 52°28' E 004°35'0 0.0
2018-May-16 20:29N 52°28' E 004°35'0 0.0
2018-May-16 19:50N 52°28' E 004°35'0 0.0
2018-May-16 19:29N 52°28' E 004°35'0 0.0
2018-May-16 18:59N 52°28' E 004°35'0 0.0
2018-May-16 17:59N 52°28' E 004°35'0 0.0
2018-May-16 17:29N 52°28' E 004°35'0 0.0
2018-May-16 16:59N 52°28' E 004°35'0 0.0
2018-May-16 16:29N 52°28' E 004°35'0 0.0
2018-May-16 15:59N 52°28' E 004°35'0 0.0
2018-May-16 15:29N 52°28' E 004°35'0 0.0
2018-May-16 14:59N 52°28' E 004°35'0 0.0
2018-May-16 14:26N 52°28' E 004°35'0 0.0
2018-May-16 13:59N 52°28' E 004°35'0 0.0
2018-May-16 13:29N 52°28' E 004°35'0 0.0
2018-May-16 13:00N 52°28' E 004°35'0 0.0
2018-May-16 12:30N 52°28' E 004°35'0 0.0
2018-May-16 12:00N 52°28' E 004°35'0 0.0
2018-May-16 11:30N 52°28' E 004°35'0 0.0
2018-May-16 10:57N 52°28' E 004°35'0 0.0
2018-May-16 10:30N 52°28' E 004°35'0 0.0
2018-May-16 10:00N 52°28' E 004°35'0 0.0
2018-May-16 09:27N 52°28' E 004°35'0 0.0
2018-May-16 08:57N 52°28' E 004°35'0 0.0
2018-May-16 08:27N 52°28' E 004°35'0 0.0
2018-May-16 08:00N 52°28' E 004°35'0 0.0
2018-May-16 07:30N 52°28' E 004°35'0 0.0
2018-May-16 06:54N 52°28' E 004°35'0 0.0
2018-May-16 06:15N 52°28' E 004°35'0 0.0
2018-May-16 05:57N 52°28' E 004°35'0 0.0
2018-May-16 05:30N 52°28' E 004°35'0 0.0
2018-May-16 05:00N 52°28' E 004°35'0 0.0
2018-May-16 04:28N 52°28' E 004°35'0 0.0
2018-May-16 03:55N 52°28' E 004°35'0 0.0
2018-May-16 03:28N 52°28' E 004°35'0 0.0
2018-May-16 02:58N 52°28' E 004°35'0 0.0
2018-May-16 02:28N 52°28' E 004°35'0 0.0
2018-May-16 01:58N 52°28' E 004°35'0 0.0
2018-May-16 01:28N 52°28' E 004°35'0 0.0
2018-May-16 00:58N 52°28' E 004°35'0 0.0
2018-May-16 00:28N 52°28' E 004°35'0 0.0
2018-May-15 23:58N 52°28' E 004°35'0 0.0
2018-May-15 23:28N 52°28' E 004°35'0 0.0
2018-May-15 22:58N 52°28' E 004°35'0 0.0
2018-May-15 22:28N 52°28' E 004°35'0 0.0
2018-May-15 21:55N 52°28' E 004°35'0 0.0
2018-May-15 21:29N 52°28' E 004°35'0 0.0
2018-May-15 20:59N 52°28' E 004°35'0 0.0
2018-May-15 20:24N 52°28' E 004°35'0 0.0
2018-May-15 20:00N 52°28' E 004°35'0 0.0
2018-May-15 19:30N 52°28' E 004°35'0 0.0
2018-May-15 18:57N 52°28' E 004°35'0 0.0
2018-May-15 18:27N 52°28' E 004°35'0 0.0
2018-May-15 17:57N 52°28' E 004°35'0 0.0
2018-May-15 17:30N 52°28' E 004°35'0 0.0
2018-May-15 17:00N 52°28' E 004°35'0 0.0
2018-May-15 16:27N 52°28' E 004°35'0 0.0
2018-May-15 16:00N 52°28' E 004°35'0 0.0
2018-May-15 15:24N 52°28' E 004°35'0 0.0
2018-May-15 15:00N 52°28' E 004°35'0 0.0
2018-May-15 14:30N 52°28' E 004°35'0 0.0
2018-May-15 14:00N 52°28' E 004°35'0 0.0
2018-May-15 13:27N 52°28' E 004°35'0 0.0
2018-May-15 13:00N 52°28' E 004°35'0 0.0
2018-May-15 12:27N 52°28' E 004°35'0 0.0
2018-May-15 12:00N 52°28' E 004°35'0 0.0
2018-May-15 11:30N 52°28' E 004°35'0 0.0
2018-May-15 11:00N 52°28' E 004°35'0 0.0
2018-May-15 10:27N 52°28' E 004°35'0 0.0
2018-May-15 10:00N 52°28' E 004°35'0 0.0
2018-May-15 09:27N 52°28' E 004°35'0 0.0
2018-May-15 09:00N 52°28' E 004°35'0 0.0
2018-May-15 08:27N 52°28' E 004°35'0 0.0
2018-May-15 08:00N 52°28' E 004°35'0 0.0
2018-May-15 07:30N 52°28' E 004°35'0 0.0
2018-May-15 07:00N 52°28' E 004°35'0 0.0
2018-May-15 06:27N 52°28' E 004°35'0 0.0
2018-May-15 06:00N 52°28' E 004°35'0 0.0
2018-May-15 05:30N 52°28' E 004°35'0 0.0
2018-May-15 05:00N 52°28' E 004°35'0 0.0
2018-May-15 04:25N 52°28' E 004°35'0 0.0
2018-May-15 03:58N 52°28' E 004°35'0 0.0
2018-May-15 03:28N 52°28' E 004°35'0 0.0
2018-May-15 02:55N 52°28' E 004°35'0 0.0
2018-May-15 02:28N 52°28' E 004°35'0 0.0
2018-May-15 01:58N 52°28' E 004°35'0 0.0
2018-May-15 01:25N 52°28' E 004°35'0 0.0
2018-May-15 00:58N 52°28' E 004°35'0 0.0
2018-May-15 00:25N 52°28' E 004°35'0 0.0
2018-May-14 23:58N 52°28' E 004°35'0 0.0
2018-May-14 23:28N 52°28' E 004°35'0 0.0
2018-May-14 22:58N 52°28' E 004°35'0 0.0
2018-May-14 22:28N 52°28' E 004°35'0 0.0
2018-May-14 21:55N 52°28' E 004°35'0 0.0
2018-May-14 21:28N 52°28' E 004°35'0 0.0
2018-May-14 21:00N 52°28' E 004°35'0 0.0
2018-May-14 20:29N 52°28' E 004°35'  

Dump ship's entire track history